createdAt,value
2019-03-09T00:02:24.552Z,74.10
2019-03-09T00:04:55.380Z,73.30
2019-03-09T00:07:27.392Z,72.50
2019-03-09T00:09:58.209Z,72.10
2019-03-09T00:12:29.072Z,72.80
2019-03-09T00:15:00.328Z,72.60
2019-03-09T00:17:31.124Z,74.30
2019-03-09T00:20:02.037Z,73.60
2019-03-09T00:22:33.148Z,74.80
2019-03-09T00:25:23.016Z,74.50
2019-03-09T00:28:22.154Z,74.20
2019-03-09T00:31:11.839Z,74.30
2019-03-09T00:33:42.637Z,74.30
2019-03-09T00:36:13.465Z,75.10
2019-03-09T00:38:44.532Z,74.80
2019-03-09T00:41:15.342Z,74.50
2019-03-09T00:43:46.484Z,74.90
2019-03-09T00:46:17.270Z,75.30
2019-03-09T00:48:48.070Z,75.80
2019-03-09T00:51:18.885Z,75.90
2019-03-09T00:53:49.680Z,75.60
2019-03-09T00:56:20.521Z,74.80
2019-03-09T00:58:51.332Z,75.40
2019-03-09T01:01:22.137Z,74.80
2019-03-09T01:03:52.933Z,76.40
2019-03-09T01:06:23.740Z,76.60
2019-03-09T01:08:54.549Z,76.60
2019-03-09T01:11:26.564Z,77.00
2019-03-09T01:13:57.376Z,78.00
2019-03-09T01:16:28.428Z,77.80
2019-03-09T01:18:59.668Z,78.00
2019-03-09T01:21:30.843Z,77.20
2019-03-09T01:24:01.633Z,78.20
2019-03-09T01:26:32.570Z,78.40
2019-03-09T01:29:03.360Z,77.50
2019-03-09T01:31:34.193Z,77.40
2019-03-09T01:34:05.109Z,76.30
2019-03-09T01:36:35.996Z,77.70
2019-03-09T01:39:07.943Z,77.00
2019-03-09T01:41:39.350Z,76.20
2019-03-09T01:44:10.202Z,76.30
2019-03-09T01:46:41.045Z,76.00
2019-03-09T01:49:11.840Z,75.20
2019-03-09T01:51:42.771Z,74.90
2019-03-09T01:54:14.891Z,74.70
2019-03-09T01:56:45.725Z,74.20
2019-03-09T01:59:16.526Z,75.40
2019-03-09T02:01:48.759Z,73.70
2019-03-09T02:04:19.883Z,75.50
2019-03-09T02:06:50.802Z,72.70
2019-03-09T02:09:22.156Z,73.50
2019-03-09T02:11:53.221Z,73.40
2019-03-09T02:14:24.016Z,73.50
2019-03-09T02:16:55.853Z,72.10
2019-03-09T02:19:26.666Z,73.30
2019-03-09T02:21:57.473Z,72.00
2019-03-09T02:24:28.284Z,71.20
2019-03-09T02:26:59.123Z,71.40
2019-03-09T02:29:29.924Z,71.50
2019-03-09T02:32:00.761Z,72.60
2019-03-09T02:34:31.657Z,71.40
2019-03-09T02:37:02.505Z,70.80
2019-03-09T02:39:52.102Z,70.40
2019-03-09T02:42:22.920Z,71.90
2019-03-09T02:44:53.725Z,72.30
2019-03-09T02:47:24.541Z,72.10
2019-03-09T02:49:55.547Z,71.70
2019-03-09T02:52:26.400Z,71.10
2019-03-09T02:54:57.285Z,71.00
2019-03-09T02:57:29.105Z,71.90
2019-03-09T03:00:01.173Z,71.80
2019-03-09T03:02:46.445Z,73.10
2019-03-09T03:05:17.468Z,72.50
2019-03-09T03:07:48.270Z,70.70
2019-03-09T03:10:19.085Z,71.70
2019-03-09T03:12:49.907Z,71.80
2019-03-09T03:15:32.889Z,71.20
2019-03-09T03:18:04.016Z,71.60
2019-03-09T03:20:34.929Z,71.20
2019-03-09T03:23:05.761Z,72.10
2019-03-09T03:25:36.528Z,72.10
2019-03-09T03:28:07.349Z,71.90
2019-03-09T03:30:39.152Z,72.70
2019-03-09T03:33:09.989Z,72.50
2019-03-09T03:35:40.772Z,71.80
2019-03-09T03:38:11.625Z,71.40
2019-03-09T03:40:42.425Z,71.50
2019-03-09T03:43:16.076Z,72.60
2019-03-09T03:45:46.309Z,72.20
2019-03-09T03:48:17.225Z,72.80
2019-03-09T03:50:48.014Z,73.60
2019-03-09T03:53:18.834Z,73.20
2019-03-09T03:55:49.847Z,73.80
2019-03-09T03:58:21.668Z,74.30
2019-03-09T04:00:52.696Z,74.20
2019-03-09T04:03:23.612Z,74.40
2019-03-09T04:05:54.717Z,74.50
2019-03-09T04:08:25.669Z,74.20
2019-03-09T04:10:56.883Z,73.90
2019-03-09T04:13:27.701Z,74.50
2019-03-09T04:15:58.509Z,74.00
2019-03-09T04:18:29.365Z,74.30
2019-03-09T04:21:02.027Z,74.60
2019-03-09T04:23:32.584Z,74.80
2019-03-09T04:26:03.410Z,74.90
2019-03-09T04:28:34.694Z,75.10
2019-03-09T04:31:05.550Z,75.30
2019-03-09T04:33:36.597Z,75.40
2019-03-09T04:36:07.396Z,76.30
2019-03-09T04:38:38.253Z,75.50
2019-03-09T04:41:09.052Z,75.60
2019-03-09T04:43:39.860Z,75.30
2019-03-09T04:46:10.774Z,75.70
2019-03-09T04:48:41.584Z,76.10
2019-03-09T04:51:12.385Z,76.30
2019-03-09T04:53:43.222Z,76.40
2019-03-09T04:56:14.005Z,76.00
2019-03-09T04:58:44.845Z,76.00
2019-03-09T05:01:15.653Z,76.10
2019-03-09T05:03:48.410Z,76.50
2019-03-09T05:06:20.034Z,76.40
2019-03-09T05:09:27.833Z,76.30
2019-03-09T05:11:58.644Z,76.30
2019-03-09T05:14:29.482Z,76.70
2019-03-09T05:17:00.296Z,75.90
2019-03-09T05:19:31.119Z,75.80
2019-03-09T05:22:01.909Z,75.20
2019-03-09T05:24:32.746Z,75.30
2019-03-09T05:27:03.559Z,74.70
2019-03-09T05:29:34.388Z,74.90
2019-03-09T05:32:05.302Z,74.60
2019-03-09T05:34:36.134Z,74.30
2019-03-09T05:37:06.936Z,73.20
2019-03-09T05:39:37.755Z,70.60
2019-03-09T05:42:08.564Z,68.50
2019-03-09T05:44:39.413Z,65.30
2019-03-09T05:47:10.212Z,62.10
2019-03-09T05:49:41.045Z,59.50
2019-03-09T05:52:34.761Z,58.00
2019-03-09T05:55:12.537Z,56.00
2019-03-09T05:57:44.349Z,51.80
2019-03-09T06:00:17.196Z,50.30
2019-03-09T06:02:48.008Z,47.80
2019-03-09T06:05:33.290Z,47.00
2019-03-09T06:08:04.633Z,46.10
2019-03-09T06:10:35.468Z,42.90
2019-03-09T06:13:06.604Z,43.00
2019-03-09T06:15:37.437Z,44.00
2019-03-09T06:18:08.263Z,42.40
2019-03-09T06:20:39.184Z,41.60
2019-03-09T06:23:10.081Z,39.90
2019-03-09T06:25:40.907Z,40.20
2019-03-09T06:28:12.099Z,38.60
2019-03-09T06:30:42.944Z,38.00
2019-03-09T06:33:30.516Z,37.60
2019-03-09T06:36:20.761Z,37.70
2019-03-09T06:39:00.152Z,44.30
2019-03-09T06:42:06.751Z,46.70
2019-03-09T06:44:37.604Z,51.30
2019-03-09T06:47:08.475Z,52.60
2019-03-09T06:49:39.288Z,55.30
2019-03-09T06:52:10.192Z,50.90
2019-03-09T06:54:42.030Z,48.00
2019-03-09T06:57:14.133Z,43.40
2019-03-09T06:59:45.177Z,40.10
2019-03-09T07:02:16.016Z,39.10
2019-03-09T07:04:46.881Z,37.30
2019-03-09T07:07:17.730Z,42.60
2019-03-09T07:09:48.540Z,45.30
2019-03-09T07:12:19.386Z,46.80
2019-03-09T07:15:22.147Z,49.10
2019-03-09T07:18:07.500Z,53.00
2019-03-09T07:20:38.412Z,53.00
2019-03-09T07:23:09.245Z,54.40
2019-03-09T07:25:40.059Z,54.20
2019-03-09T07:28:15.375Z,53.30
2019-03-09T07:30:47.657Z,51.00
2019-03-09T07:33:18.516Z,50.10
2019-03-09T07:35:49.448Z,47.00
2019-03-09T07:38:20.384Z,49.20
2019-03-09T07:40:51.433Z,49.30
2019-03-09T07:43:22.249Z,50.40
2019-03-09T07:45:53.057Z,47.10
2019-03-09T07:48:24.296Z,48.10
2019-03-09T07:50:55.119Z,49.10
2019-03-09T07:53:25.980Z,51.10
2019-03-09T07:55:57.338Z,50.40
2019-03-09T07:58:28.144Z,48.70
2019-03-09T08:00:59.000Z,48.80
2019-03-09T08:03:30.152Z,48.10
2019-03-09T08:06:01.198Z,48.50
2019-03-09T08:08:33.565Z,50.30
2019-03-09T08:11:04.390Z,50.50
2019-03-09T08:13:36.242Z,48.50
2019-03-09T08:16:07.047Z,46.80
2019-03-09T08:18:37.885Z,47.50
2019-03-09T08:21:08.725Z,47.30
2019-03-09T08:23:39.516Z,48.90
2019-03-09T08:26:10.361Z,48.70
2019-03-09T08:28:41.207Z,48.50
2019-03-09T08:31:13.659Z,46.50
2019-03-09T08:33:44.501Z,47.30
2019-03-09T08:36:15.424Z,49.00
2019-03-09T08:38:46.289Z,48.20
2019-03-09T08:41:17.119Z,51.10
2019-03-09T08:43:47.979Z,49.80
2019-03-09T08:46:18.799Z,48.70
2019-03-09T08:48:49.764Z,48.40
2019-03-09T08:51:20.640Z,49.50
2019-03-09T08:53:51.462Z,48.50
2019-03-09T08:56:22.306Z,48.20
2019-03-09T08:58:53.158Z,49.90
2019-03-09T09:01:24.015Z,49.10
2019-03-09T09:03:54.804Z,48.90
2019-03-09T09:06:25.645Z,49.90
2019-03-09T09:08:56.489Z,50.50
2019-03-09T09:11:27.325Z,50.70
2019-03-09T09:13:58.167Z,50.60
2019-03-09T09:16:28.981Z,50.20
2019-03-09T09:18:59.820Z,49.40
2019-03-09T09:21:30.643Z,49.70
2019-03-09T09:24:01.461Z,50.80
2019-03-09T09:26:32.294Z,49.80
2019-03-09T09:29:03.125Z,50.80
2019-03-09T09:31:33.941Z,52.30
2019-03-09T09:34:04.781Z,52.10
2019-03-09T09:36:36.357Z,51.00
2019-03-09T09:39:08.716Z,50.20
2019-03-09T09:41:41.087Z,51.60
2019-03-09T09:44:11.928Z,51.20
2019-03-09T09:46:42.761Z,48.10
2019-03-09T09:49:13.617Z,51.20
2019-03-09T09:51:44.439Z,48.70
2019-03-09T09:54:15.283Z,47.10
2019-03-09T09:56:46.090Z,48.10
2019-03-09T09:59:16.937Z,48.60
2019-03-09T10:01:47.784Z,48.00
2019-03-09T10:04:18.633Z,48.40
2019-03-09T10:06:49.464Z,49.80
2019-03-09T10:09:20.300Z,48.30
2019-03-09T10:11:51.141Z,47.70
2019-03-09T10:14:22.021Z,48.00
2019-03-09T10:16:52.853Z,48.00
2019-03-09T10:19:23.682Z,48.50
2019-03-09T10:21:54.535Z,47.30
2019-03-09T10:24:25.589Z,48.70
2019-03-09T10:26:56.408Z,48.30
2019-03-09T10:29:27.337Z,48.00
2019-03-09T10:31:58.202Z,49.70
2019-03-09T10:34:28.997Z,49.10
2019-03-09T10:36:59.813Z,49.50
2019-03-09T10:39:30.664Z,50.50
2019-03-09T10:42:01.481Z,50.10
2019-03-09T10:44:32.321Z,50.50
2019-03-09T10:47:03.127Z,50.50
2019-03-09T10:49:33.968Z,50.20
2019-03-09T10:52:04.790Z,50.40
2019-03-09T10:54:36.330Z,50.60
2019-03-09T10:57:07.595Z,51.30
2019-03-09T10:59:38.418Z,50.90
2019-03-09T11:02:09.331Z,51.40
2019-03-09T11:04:40.166Z,52.00
2019-03-09T11:07:10.972Z,52.00
2019-03-09T11:09:44.079Z,52.00
2019-03-09T11:12:14.336Z,50.80
2019-03-09T11:14:45.128Z,50.90
2019-03-09T11:17:15.945Z,51.10
2019-03-09T11:19:47.751Z,51.10
2019-03-09T11:22:19.407Z,51.60
2019-03-09T11:24:51.069Z,52.50
2019-03-09T11:27:22.513Z,52.40
2019-03-09T11:29:54.130Z,51.40
2019-03-09T11:32:25.463Z,51.90
2019-03-09T11:34:57.578Z,52.30
2019-03-09T11:37:29.174Z,51.10
2019-03-09T11:40:02.037Z,51.30
2019-03-09T11:42:34.932Z,50.50
2019-03-09T11:45:07.158Z,50.80
2019-03-09T11:47:38.298Z,51.20
2019-03-09T11:50:10.309Z,51.70
2019-03-09T11:52:41.728Z,51.30
2019-03-09T11:55:13.626Z,52.40
2019-03-09T11:57:45.548Z,53.00
2019-03-09T12:00:21.961Z,53.50
2019-03-09T12:02:53.436Z,52.90
2019-03-09T12:05:25.261Z,52.70
2019-03-09T12:07:56.611Z,52.80
2019-03-09T12:10:31.037Z,52.60
2019-03-09T12:13:02.548Z,51.90
2019-03-09T12:15:33.812Z,51.90
2019-03-09T12:18:06.102Z,52.00
2019-03-09T12:20:37.855Z,52.30
2019-03-09T12:23:20.763Z,52.40
2019-03-09T12:25:52.558Z,52.40
2019-03-09T12:28:24.111Z,52.30
2019-03-09T12:30:58.264Z,51.80
2019-03-09T12:33:31.880Z,52.00
2019-03-09T12:36:02.561Z,52.90
2019-03-09T12:38:34.008Z,52.10
2019-03-09T12:41:08.949Z,52.70
2019-03-09T12:43:40.081Z,53.00
2019-03-09T12:46:11.634Z,53.10
2019-03-09T12:48:45.276Z,52.40
2019-03-09T12:51:17.133Z,52.50
2019-03-09T12:53:49.278Z,52.80
2019-03-09T12:56:21.931Z,53.40
2019-03-09T12:58:53.643Z,53.10
2019-03-09T13:01:29.595Z,53.40
2019-03-09T13:03:58.299Z,53.80
2019-03-09T13:06:30.003Z,53.30
2019-03-09T13:09:01.997Z,53.30
2019-03-09T13:11:35.144Z,53.60
2019-03-09T13:14:06.213Z,53.70
2019-03-09T13:16:37.755Z,53.60
2019-03-09T13:19:09.131Z,52.70
2019-03-09T13:21:40.683Z,53.00
2019-03-09T13:24:12.598Z,52.80
2019-03-09T13:26:44.023Z,53.30
2019-03-09T13:29:15.803Z,53.50
2019-03-09T13:31:47.176Z,53.40
2019-03-09T13:34:18.794Z,53.50
2019-03-09T13:36:50.328Z,53.40
2019-03-09T13:39:21.970Z,54.10
2019-03-09T13:42:00.079Z,53.60
2019-03-09T13:44:31.806Z,53.80
2019-03-09T13:47:04.419Z,54.10
2019-03-09T13:49:36.272Z,54.50
2019-03-09T13:52:12.217Z,54.60
2019-03-09T13:54:45.716Z,54.90
2019-03-09T13:57:18.058Z,54.40
2019-03-09T13:59:49.213Z,54.70
2019-03-09T14:02:20.462Z,53.90
2019-03-09T14:04:54.124Z,54.60
2019-03-09T14:07:25.425Z,54.60
2019-03-09T14:09:58.317Z,54.70
2019-03-09T14:12:29.664Z,54.60
2019-03-09T14:15:04.369Z,55.50
2019-03-09T14:17:40.612Z,55.20
2019-03-09T14:20:12.732Z,55.90
2019-03-09T14:22:56.026Z,56.00
2019-03-09T14:25:27.992Z,55.80
2019-03-09T14:27:59.599Z,56.10
2019-03-09T14:30:31.140Z,56.50
2019-03-09T14:33:03.016Z,57.10
2019-03-09T14:35:34.523Z,57.30
2019-03-09T14:38:06.159Z,57.10
2019-03-09T14:40:37.769Z,58.10
2019-03-09T14:43:12.415Z,58.60
2019-03-09T14:45:45.241Z,60.90
2019-03-09T14:48:16.901Z,62.40
2019-03-09T14:50:49.845Z,63.10
2019-03-09T14:53:21.638Z,63.40
2019-03-09T14:55:53.088Z,63.40
2019-03-09T14:58:27.028Z,64.50
2019-03-09T15:00:59.984Z,64.10
2019-03-09T15:03:31.640Z,64.20
2019-03-09T15:06:05.068Z,64.10
2019-03-09T15:08:38.377Z,64.20
2019-03-09T15:11:13.974Z,64.70
2019-03-09T15:13:46.074Z,64.20
2019-03-09T15:16:37.078Z,64.10
2019-03-09T15:19:16.880Z,65.20
2019-03-09T15:25:11.951Z,65.60
2019-03-09T15:27:47.830Z,65.90
2019-03-09T15:30:19.774Z,66.60
2019-03-09T15:32:51.383Z,67.60
2019-03-09T15:35:24.991Z,67.00
2019-03-09T15:37:57.383Z,68.60
2019-03-09T15:40:32.084Z,67.90
2019-03-09T15:43:08.033Z,68.30
2019-03-09T15:45:45.106Z,68.30
2019-03-09T15:48:16.780Z,69.40
2019-03-09T15:50:51.972Z,69.20
2019-03-09T15:53:23.058Z,69.20
2019-03-09T15:55:56.265Z,70.40
2019-03-09T15:58:30.765Z,71.20
2019-03-09T16:01:04.065Z,71.70
2019-03-09T16:03:36.443Z,71.60
2019-03-09T16:06:09.007Z,72.30
2019-03-09T16:09:11.088Z,72.90
2019-03-09T16:11:44.984Z,73.80
2019-03-09T16:14:23.330Z,73.00
2019-03-09T16:20:16.099Z,73.60
2019-03-09T16:23:10.926Z,73.40
2019-03-09T16:25:57.173Z,74.00
2019-03-09T16:28:31.798Z,74.10
2019-03-09T16:31:14.204Z,73.30
2019-03-09T16:33:50.979Z,74.20
2019-03-09T16:36:27.589Z,74.40
2019-03-09T16:39:03.011Z,74.70
2019-03-09T16:41:36.918Z,75.20
2019-03-09T16:44:14.699Z,76.40
2019-03-09T16:46:48.103Z,76.10
2019-03-09T16:49:19.378Z,76.70
2019-03-09T16:52:07.191Z,76.80
2019-03-09T16:54:43.697Z,77.60
2019-03-09T16:57:42.053Z,78.30
2019-03-09T17:00:19.415Z,78.60
2019-03-09T17:03:16.582Z,79.20
2019-03-09T17:06:12.915Z,79.10
2019-03-09T17:08:41.241Z,79.40
2019-03-09T17:11:46.290Z,80.20
2019-03-09T17:14:23.877Z,81.30
2019-03-09T17:26:58.578Z,80.40
2019-03-09T17:29:54.741Z,80.70
2019-03-09T17:32:26.675Z,80.70
2019-03-09T17:35:00.338Z,80.70
2019-03-09T17:41:00.220Z,82.00
2019-03-09T17:43:38.443Z,82.30
2019-03-09T17:46:10.802Z,82.60
2019-03-09T17:48:45.430Z,83.00
2019-03-09T17:51:41.269Z,82.70
2019-03-09T17:54:19.573Z,83.10
2019-03-09T17:57:08.023Z,83.40
2019-03-09T17:59:57.260Z,82.90
2019-03-09T18:02:36.729Z,82.70
2019-03-09T18:05:22.207Z,82.60
2019-03-09T18:08:27.857Z,83.40
2019-03-09T18:14:23.496Z,83.60
2019-03-09T18:17:02.525Z,83.50
2019-03-09T18:19:50.868Z,84.90
2019-03-09T18:22:29.667Z,83.20
2019-03-09T18:28:10.193Z,84.40
2019-03-09T18:31:38.156Z,84.10
2019-03-09T18:34:16.252Z,83.80
2019-03-09T18:36:58.432Z,84.10
2019-03-09T18:39:48.601Z,84.40
2019-03-09T18:42:37.791Z,84.40
2019-03-09T18:45:13.656Z,84.60
2019-03-09T18:50:55.384Z,84.00
2019-03-09T18:53:40.436Z,83.60
2019-03-09T18:56:13.574Z,83.80
2019-03-09T18:58:53.441Z,83.80
2019-03-09T19:01:27.795Z,84.60
2019-03-09T19:04:24.436Z,84.40
2019-03-09T19:07:09.999Z,84.00
2019-03-09T19:09:52.729Z,83.90
2019-03-09T19:13:12.821Z,84.10
2019-03-09T19:21:34.329Z,84.00
2019-03-09T19:24:48.600Z,84.30
2019-03-09T19:27:33.985Z,84.70
2019-03-09T19:30:09.586Z,84.90
2019-03-09T19:32:47.252Z,84.70
2019-03-09T19:35:23.715Z,84.10
2019-03-09T19:38:00.198Z,83.90
2019-03-09T19:40:42.964Z,83.50
2019-03-09T19:43:21.003Z,83.70
2019-03-09T19:45:54.297Z,83.60
2019-03-09T19:48:59.620Z,84.40
2019-03-09T19:51:32.910Z,83.10
2019-03-09T19:54:19.849Z,83.60
2019-03-09T19:56:58.491Z,83.60
2019-03-09T19:59:41.076Z,83.80
2019-03-09T20:02:39.459Z,84.20
2019-03-09T20:05:38.266Z,84.30
2019-03-09T20:08:33.044Z,84.40
2019-03-09T20:11:07.873Z,84.70
2019-03-09T20:13:42.091Z,83.60
2019-03-09T20:16:22.360Z,84.20
2019-03-09T20:19:00.127Z,84.20
2019-03-09T20:21:39.902Z,84.40
2019-03-09T20:24:20.860Z,84.30
2019-03-09T20:27:01.674Z,84.20
2019-03-09T20:29:35.822Z,83.90
2019-03-09T20:32:17.164Z,83.90
2019-03-09T20:34:49.188Z,83.90
2019-03-09T20:40:56.626Z,84.50
2019-03-09T20:43:40.645Z,84.20
2019-03-09T20:46:25.346Z,84.00
2019-03-09T20:49:06.303Z,84.10
2019-03-09T20:51:48.173Z,84.00
2019-03-09T20:54:23.437Z,83.60
2019-03-09T20:57:06.248Z,83.50
2019-03-09T21:00:08.256Z,84.00
2019-03-09T21:02:43.488Z,84.00
2019-03-09T21:05:30.372Z,83.50
2019-03-09T21:08:09.528Z,83.40
2019-03-09T21:10:44.791Z,83.50
2019-03-09T21:14:05.654Z,83.40
2019-03-09T21:21:55.976Z,83.00
2019-03-09T21:24:45.795Z,83.00
2019-03-09T21:27:55.504Z,83.10
2019-03-09T21:30:29.412Z,83.10
2019-03-09T21:33:11.974Z,83.10
2019-03-09T21:36:29.249Z,83.10
2019-03-09T21:40:31.425Z,83.20
2019-03-09T21:42:24.258Z,83.40
2019-03-09T21:45:27.669Z,83.60
2019-03-09T21:50:52.040Z,83.40
2019-03-09T21:53:29.013Z,82.90
2019-03-09T21:56:09.687Z,82.90
2019-03-09T22:02:12.799Z,82.70
2019-03-09T22:04:50.823Z,82.80
2019-03-09T22:07:33.552Z,82.80
2019-03-09T22:10:09.717Z,82.70
2019-03-09T22:12:54.431Z,83.00
2019-03-09T22:15:47.581Z,83.30
2019-03-09T22:18:24.083Z,83.40
2019-03-09T22:21:37.227Z,83.70
2019-03-09T22:24:25.141Z,84.00
2019-03-09T22:30:30.025Z,85.00
2019-03-09T22:33:26.866Z,84.10
2019-03-09T22:39:38.871Z,84.10
2019-03-09T22:52:05.578Z,84.00
2019-03-09T23:14:37.195Z,83.70
2019-03-09T23:17:28.400Z,84.10
2019-03-09T23:20:21.446Z,84.30
2019-03-09T23:23:18.498Z,84.10
2019-03-09T23:25:59.461Z,84.10
2019-03-09T23:28:46.373Z,84.20
2019-03-09T23:39:28.639Z,84.40
2019-03-09T23:50:59.669Z,83.90
2019-03-09T23:56:49.925Z,84.30
